Time;durP1;ratioP1;P1;durP2;ratioP2;P2;SDS_P1;SDS_P2;PMS_P1;PMS_P2;Temp;Humidity;BMP_temperature;BMP_pressure;BME280_temperature;BME280_humidity;BME280_pressure;Samples;Min_cycle;Max_cycle;Signal;HPM_P1;HPM_P2
2022/04/30 00:02:06;;;;;;;4.53;2.53;;;;;;;3.58;66.58;100423.59;5030151;28;20033;-63
2022/04/30 00:04:34;;;;;;;3.25;2.50;;;;;;;3.54;66.16;100417.56;5030137;28;20033;-63
2022/04/30 00:06:59;;;;;;;5.85;2.20;;;;;;;3.51;66.29;100419.47;5030027;28;20038;-63
2022/04/30 00:09:25;;;;;;;2.80;1.90;;;;;;;3.47;65.98;100425.81;5029759;28;20034;-62
2022/04/30 00:11:50;;;;;;;2.42;1.90;;;;;;;3.35;65.93;100406.00;5031321;28;20033;-62
2022/04/30 00:14:16;;;;;;;2.13;1.60;;;;;;;3.37;65.68;100420.03;5034140;28;20132;-62
2022/04/30 00:16:42;;;;;;;1.70;1.48;;;;;;;3.30;66.26;100419.44;5034017;28;20036;-63
2022/04/30 00:19:08;;;;;;;2.10;1.75;;;;;;;3.24;65.83;100425.84;5033615;28;20033;-63
2022/04/30 00:21:34;;;;;;;1.75;1.48;;;;;;;3.21;66.10;100415.38;5034067;28;20550;-63
2022/04/30 00:23:59;;;;;;;5.47;1.90;;;;;;;3.17;66.38;100419.06;5034138;28;20053;-63
2022/04/30 00:26:25;;;;;;;2.35;1.60;;;;;;;3.19;66.12;100419.88;5034072;28;20125;-63
2022/04/30 00:28:52;;;;;;;2.88;1.70;;;;;;;3.16;66.29;100423.50;5034193;28;20034;-62
2022/04/30 00:31:17;;;;;;;3.38;1.90;;;;;;;3.18;66.30;100427.88;5033802;28;20040;-63
2022/04/30 00:33:47;;;;;;;2.00;1.80;;;;;;;3.13;66.11;100425.38;5033632;28;20030;-63
2022/04/30 00:36:14;;;;;;;2.42;1.67;;;;;;;3.11;66.42;100440.47;5033811;28;20531;-63
2022/04/30 00:38:40;;;;;;;2.13;1.77;;;;;;;3.12;66.19;100431.59;5033927;28;20048;-62
2022/04/30 00:41:10;;;;;;;2.33;1.67;;;;;;;3.19;66.82;100442.81;5033376;28;20037;-62
2022/04/30 00:43:50;;;;;;;2.38;2.03;;;;;;;3.39;65.97;100444.69;5033825;28;20034;-62
2022/04/30 00:46:18;;;;;;;1.98;1.77;;;;;;;3.48;65.59;100433.69;5016174;28;20039;-63
2022/04/30 00:48:45;;;;;;;2.47;1.92;;;;;;;3.48;65.19;100407.22;5033790;28;20095;-63
2022/04/30 00:51:15;;;;;;;3.20;1.83;;;;;;;3.69;64.51;100418.69;5033269;28;20061;-62
2022/04/30 00:53:44;;;;;;;3.63;1.80;;;;;;;3.61;64.58;100406.69;5033546;28;20041;-62
2022/04/30 00:56:12;;;;;;;2.45;1.90;;;;;;;3.71;63.89;100430.06;5033230;28;20136;-62
2022/04/30 00:58:42;;;;;;;2.55;2.00;;;;;;;3.58;64.08;100419.13;5033098;28;20026;-62
2022/04/30 01:01:08;;;;;;;2.92;1.92;;;;;;;3.70;64.26;100425.69;5033051;28;20772;-62
2022/04/30 01:03:34;;;;;;;3.03;1.73;;;;;;;3.64;64.74;100433.06;5033112;28;20033;-61
2022/04/30 01:06:00;;;;;;;2.45;2.10;;;;;;;3.49;64.32;100413.38;5033549;28;20053;-62
2022/04/30 01:08:30;;;;;;;2.60;2.00;;;;;;;3.58;64.54;100429.72;5015062;28;20323;-63
2022/04/30 01:11:00;;;;;;;2.53;1.80;;;;;;;3.43;64.62;100412.69;5014874;28;20033;-62
2022/04/30 01:13:28;;;;;;;2.38;1.85;;;;;;;3.42;64.19;100439.25;5033509;28;20029;-63
2022/04/30 01:15:58;;;;;;;1.83;1.48;;;;;;;3.45;65.24;100455.00;5032856;28;20036;-63
2022/04/30 01:18:27;;;;;;;2.55;1.90;;;;;;;3.46;65.43;100446.13;5032323;28;20034;-63
2022/04/30 01:20:59;;;;;;;2.35;1.60;;;;;;;3.47;64.73;100445.22;5032461;28;20994;-61
2022/04/30 01:23:26;;;;;;;2.35;1.70;;;;;;;3.49;64.69;100442.47;5014002;28;20053;-62
2022/04/30 01:25:53;;;;;;;2.55;2.00;;;;;;;3.47;64.54;100445.22;5032819;28;20047;-62
2022/04/30 01:28:19;;;;;;;2.38;1.70;;;;;;;3.47;64.80;100445.22;5032540;28;20030;-63
2022/04/30 01:30:45;;;;;;;1.70;1.52;;;;;;;3.48;64.79;100452.22;5032266;28;20548;-62
2022/04/30 01:38:40;;;;;;;5.28;2.00;;;;;;;3.61;64.23;100438.47;5032397;28;20033;-62
2022/04/30 01:41:06;;;;;;;3.95;2.13;;;;;;;3.62;64.08;100429.59;5032153;28;20124;-62
2022/04/30 01:43:33;;;;;;;3.75;2.08;;;;;;;3.68;63.87;100446.09;5033402;28;20040;-62
2022/04/30 01:46:00;;;;;;;3.28;2.00;;;;;;;3.52;63.76;100411.47;5032559;28;20056;-62
2022/04/30 01:48:26;;;;;;;3.63;2.00;;;;;;;3.74;63.71;100439.69;5032110;28;20488;-61
2022/04/30 01:50:55;;;;;;;2.50;1.90;;;;;;;3.70;63.84;100446.03;5031776;28;20026;-62
2022/04/30 01:53:20;;;;;;;3.63;2.13;;;;;;;3.68;63.65;100450.56;5032003;28;20041;-62
2022/04/30 01:55:46;;;;;;;4.18;2.30;;;;;;;3.70;63.34;100454.00;5032123;28;20028;-60
2022/04/30 01:58:11;;;;;;;2.70;2.17;;;;;;;3.79;63.32;100452.75;5032043;28;20103;-62
2022/04/30 02:00:37;;;;;;;2.83;2.42;;;;;;;3.63;63.48;100413.66;5031734;28;20124;-63
2022/04/30 02:03:08;;;;;;;2.78;2.50;;;;;;;3.82;63.47;100452.63;5032329;28;20069;-61
2022/04/30 02:05:35;;;;;;;2.75;2.28;;;;;;;3.71;63.26;100453.06;5032670;28;20029;-63
2022/04/30 02:08:09;;;;;;;3.13;2.58;;;;;;;3.54;63.50;100412.25;5031637;28;20122;-63
2022/04/30 02:10:36;;;;;;;4.22;2.60;;;;;;;3.76;63.19;100451.06;5031630;28;20033;-62
2022/04/30 02:13:05;;;;;;;4.75;2.60;;;;;;;3.81;63.16;100446.44;5032015;28;20393;-61
2022/04/30 02:15:33;;;;;;;4.03;2.35;;;;;;;3.85;62.47;100452.47;5014513;28;20064;-62
2022/04/30 02:18:00;;;;;;;3.63;2.50;;;;;;;3.84;62.57;100448.94;5031672;28;20025;-62
2022/04/30 02:20:29;;;;;;;3.08;2.70;;;;;;;3.82;62.75;100442.03;5031539;28;20044;-62
2022/04/30 02:22:58;;;;;;;3.85;2.58;;;;;;;3.93;62.19;100458.31;5031621;28;20052;-61
2022/04/30 02:25:25;;;;;;;3.85;2.70;;;;;;;3.86;62.33;100444.47;5013995;28;20401;-62
2022/04/30 02:27:53;;;;;;;7.72;2.60;;;;;;;3.98;62.17;100458.13;5031674;28;20029;-62
2022/04/30 02:30:21;;;;;;;2.95;2.63;;;;;;;3.99;61.98;100457.19;5031288;28;20108;-63
2022/04/30 02:32:50;;;;;;;3.08;2.78;;;;;;;4.05;62.21;100466.66;5013949;28;20056;-62
2022/04/30 02:35:22;;;;;;;4.47;2.60;;;;;;;4.06;61.56;100466.59;5030724;28;20040;-66
2022/04/30 02:37:49;;;;;;;3.97;3.08;;;;;;;3.99;61.70;100465.13;5030995;28;20033;-64
2022/04/30 02:40:16;;;;;;;3.20;2.80;;;;;;;3.92;62.03;100469.81;5030720;28;20124;-66
2022/04/30 02:42:44;;;;;;;3.65;2.53;;;;;;;3.92;61.61;100468.97;5031469;28;20029;-65
2022/04/30 02:45:14;;;;;;;2.63;2.20;;;;;;;3.97;61.47;100477.59;5030986;28;20446;-65
2022/04/30 02:47:44;;;;;;;2.63;2.17;;;;;;;3.99;61.77;100491.63;5030826;28;20104;-62
2022/04/30 02:50:13;;;;;;;3.42;2.38;;;;;;;4.00;61.25;100488.06;5031186;28;20064;-61
2022/04/30 02:52:42;;;;;;;2.70;2.30;;;;;;;3.97;61.85;100478.44;5031148;28;20032;-63
2022/04/30 02:55:08;;;;;;;3.03;2.25;;;;;;;3.97;61.75;100481.09;5031198;28;20022;-62
2022/04/30 02:57:39;;;;;;;2.75;2.20;;;;;;;4.05;61.46;100485.22;5031075;28;20025;-62
2022/04/30 03:00:07;;;;;;;2.42;2.03;;;;;;;4.11;60.91;100499.06;5031368;28;20140;-62
2022/04/30 03:02:33;;;;;;;2.35;2.15;;;;;;;4.04;61.06;100483.50;5031178;28;20115;-63
2022/04/30 03:04:58;;;;;;;2.50;2.17;;;;;;;4.08;61.22;100495.69;5030709;28;20357;-62
2022/04/30 03:07:24;;;;;;;3.13;2.20;;;;;;;4.12;60.93;100490.19;5012808;28;20038;-62
2022/04/30 03:09:50;;;;;;;2.00;1.80;;;;;;;4.23;60.71;100487.06;5030940;28;20424;-62
2022/04/30 03:12:16;;;;;;;2.28;2.10;;;;;;;4.38;60.32;100498.78;5030971;28;20056;-61
2022/04/30 03:14:42;;;;;;;3.13;2.05;;;;;;;4.52;59.82;100494.66;5030557;28;20043;-61
2022/04/30 03:22:38;;;;;;;1.98;1.77;;;;;;;4.87;59.01;100501.00;5030657;28;20444;-61
2022/04/30 03:25:06;;;;;;;1.63;1.50;;;;;;;5.12;58.06;100501.69;5030248;28;20046;-62
2022/04/30 03:27:32;;;;;;;2.10;1.90;;;;;;;5.39;55.90;100482.72;5030240;28;20418;-62
2022/04/30 03:29:57;;;;;;;1.92;1.70;;;;;;;5.61;55.90;100490.47;5030900;28;20040;-62
2022/04/30 03:32:24;;;;;;;2.38;1.90;;;;;;;5.72;55.52;100492.59;5030567;28;20033;-62
2022/04/30 03:34:50;;;;;;;2.72;1.80;;;;;;;5.96;54.41;100506.47;5035990;28;20025;-62
2022/04/30 03:37:16;;;;;;;3.00;1.40;;;;;;;6.12;53.69;100500.38;5041653;28;20108;-62
2022/04/30 03:39:41;;;;;;;1.55;1.45;;;;;;;6.18;53.09;100489.47;5038339;28;20164;-63
2022/04/30 03:42:07;;;;;;;1.58;1.33;;;;;;;6.26;52.86;100500.56;5039625;28;20199;-62
2022/04/30 03:44:32;;;;;;;1.83;1.63;;;;;;;6.12;52.88;100485.31;5039278;28;20044;-62
2022/04/30 03:46:58;;;;;;;2.17;1.80;;;;;;;6.25;53.07;100509.47;5037744;28;20025;-62
2022/04/30 03:49:23;;;;;;;3.58;1.70;;;;;;;6.32;52.41;100510.03;5039513;28;20029;-61
2022/04/30 03:51:49;;;;;;;1.80;1.70;;;;;;;7.01;51.35;100507.25;5038750;28;20039;-62
2022/04/30 03:54:14;;;;;;;1.75;1.65;;;;;;;7.52;49.55;100509.78;5038372;28;20025;-63
2022/04/30 03:56:40;;;;;;;1.75;1.65;;;;;;;7.81;48.33;100515.22;5021955;28;20025;-62
2022/04/30 03:59:06;;;;;;;1.77;1.60;;;;;;;8.13;47.52;100514.28;5037579;28;20144;-62
2022/04/30 04:01:32;;;;;;;2.78;1.70;;;;;;;8.47;46.32;100510.47;5039111;28;20124;-62
2022/04/30 04:04:00;;;;;;;2.85;1.77;;;;;;;8.73;45.77;100515.16;5037221;28;20405;-66
2022/04/30 04:06:26;;;;;;;1.73;1.63;;;;;;;9.07;44.80;100513.06;5038847;28;20040;-61
2022/04/30 04:08:52;;;;;;;2.17;1.65;;;;;;;9.40;44.14;100521.66;5038511;28;20029;-64
2022/04/30 04:11:18;;;;;;;2.10;1.63;;;;;;;9.37;43.83;100516.53;5037790;28;20477;-57
2022/04/30 04:19:24;;;;;;;1.55;1.45;;;;;;;8.07;46.24;100525.31;4982814;28;20130;-60
2022/04/30 04:21:51;;;;;;;2.00;1.65;;;;;;;7.73;47.37;100539.66;5033893;28;20461;-61
2022/04/30 04:27:01;;;;;;;1.83;1.73;;;;;;;7.87;47.09;100544.19;5034711;28;20044;-61
2022/04/30 04:29:27;;;;;;;1.90;1.70;;;;;;;7.97;46.04;100551.69;5038914;28;20060;-62
2022/04/30 04:31:52;;;;;;;2.15;1.70;;;;;;;7.67;46.88;100520.50;5038861;28;20462;-61
2022/04/30 04:34:17;;;;;;;1.67;1.58;;;;;;;7.67;46.78;100539.16;5036447;28;20033;-62
2022/04/30 04:36:43;;;;;;;2.72;1.80;;;;;;;7.53;46.92;100542.59;5039862;28;20116;-60
2022/04/30 04:39:13;;;;;;;1.65;1.55;;;;;;;7.40;47.75;100545.97;5038459;28;20068;-62
2022/04/30 04:41:43;;;;;;;2.50;1.63;;;;;;;7.18;48.15;100548.94;5037405;28;20142;-60
2022/04/30 04:44:09;;;;;;;3.33;1.85;;;;;;;7.25;47.79;100552.13;5038822;28;20465;-64
2022/04/30 04:46:36;;;;;;;1.95;1.70;;;;;;;7.75;47.26;100559.09;5039550;28;20029;-61
2022/04/30 04:49:02;;;;;;;1.70;1.60;;;;;;;9.88;43.50;100550.66;5019091;28;20557;-62
2022/04/30 04:51:28;;;;;;;1.70;1.40;;;;;;;12.13;37.06;100545.66;5036401;28;20448;-63
2022/04/30 04:53:55;;;;;;;2.75;1.48;;;;;;;12.47;36.13;100548.44;5039056;28;20057;-62
2022/04/30 04:56:20;;;;;;;1.55;1.45;;;;;;;13.16;35.12;100543.13;5037615;28;20029;-62
2022/04/30 04:58:46;;;;;;;2.60;1.60;;;;;;;13.22;34.79;100542.63;5034205;28;20087;-62
2022/04/30 05:01:11;;;;;;;1.65;1.55;;;;;;;12.98;34.71;100538.25;5033244;28;20036;-62
2022/04/30 05:03:37;;;;;;;1.67;1.58;;;;;;;14.12;33.29;100551.50;5015848;28;20457;-62
2022/04/30 05:06:03;;;;;;;4.90;1.63;;;;;;;14.57;31.71;100536.91;5033429;28;20095;-62
2022/04/30 05:08:28;;;;;;;2.72;1.70;;;;;;;14.91;30.62;100550.19;5033334;28;20032;-62
2022/04/30 05:10:54;;;;;;;2.15;1.67;;;;;;;15.15;30.32;100545.47;5033102;28;20067;-61
2022/04/30 05:13:19;;;;;;;3.78;1.80;;;;;;;15.13;30.12;100532.13;5021075;28;20059;-62
2022/04/30 05:15:45;;;;;;;1.95;1.70;;;;;;;15.31;30.40;100548.50;5051699;28;20060;-61
2022/04/30 05:18:10;;;;;;;1.73;1.63;;;;;;;17.10;27.96;100539.38;5053265;28;20067;-61
2022/04/30 05:20:36;;;;;;;5.00;1.65;;;;;;;19.43;24.26;100533.06;5051420;28;20076;-61
2022/04/30 05:23:02;;;;;;;1.80;1.40;;;;;;;22.06;20.67;100537.34;5031798;28;20080;-61
2022/04/30 05:25:28;;;;;;;2.38;1.38;;;;;;;24.34;18.14;100552.41;5033203;28;20033;-60
2022/04/30 05:27:53;;;;;;;2.80;1.60;;;;;;;23.39;18.48;100538.75;5032452;28;20112;-60
2022/04/30 05:30:19;;;;;;;2.55;1.60;;;;;;;21.67;19.73;100538.28;5032959;28;20032;-59
2022/04/30 05:32:44;;;;;;;1.30;1.20;;;;;;;19.78;21.30;100541.13;5033168;28;20029;-60
2022/04/30 05:35:10;;;;;;;2.17;1.58;;;;;;;18.75;22.52;100546.41;5033653;28;20033;-60
2022/04/30 05:37:36;;;;;;;3.35;1.60;;;;;;;20.73;20.49;100550.66;5050379;28;20032;-63
2022/04/30 05:40:02;;;;;;;2.58;1.55;;;;;;;23.67;17.28;100540.75;5022057;28;20139;-64
2022/04/30 05:42:29;;;;;;;2.00;1.27;;;;;;;25.76;14.74;100543.13;5050492;28;20028;-61
2022/04/30 05:44:54;;;;;;;1.67;1.30;;;;;;;27.95;12.83;100536.84;5052340;28;20032;-63
2022/04/30 05:47:20;;;;;;;1.15;1.05;;;;;;;29.56;10.64;100520.66;5052772;28;20043;-68
2022/04/30 05:49:46;;;;;;;1.52;1.00;;;;;;;30.83;9.84;100540.97;5052551;28;20495;-64
2022/04/30 05:52:14;;;;;;;1.20;0.82;;;;;;;31.74;9.44;100520.19;5052481;28;20073;-62
2022/04/30 05:54:39;;;;;;;1.00;0.90;;;;;;;32.44;8.08;100531.13;5040063;28;20129;-61
2022/04/30 05:57:05;;;;;;;1.25;0.80;;;;;;;32.16;8.14;100530.91;5051803;28;20036;-62
2022/04/30 05:59:30;;;;;;;1.88;1.10;;;;;;;32.90;8.16;100530.97;5051028;28;20108;-62
2022/04/30 06:01:56;;;;;;;1.35;0.90;;;;;;;33.71;7.26;100536.94;5051257;28;20079;-64
2022/04/30 06:04:21;;;;;;;0.93;0.80;;;;;;;33.33;6.91;100540.41;5051226;28;20063;-62
2022/04/30 06:06:47;;;;;;;3.45;0.88;;;;;;;33.22;7.04;100535.81;5051588;28;20227;-60
2022/04/30 06:09:13;;;;;;;1.08;0.88;;;;;;;32.67;7.32;100538.38;5050521;28;20036;-59
2022/04/30 06:11:39;;;;;;;2.95;0.80;;;;;;;32.49;6.99;100532.03;5051586;28;20025;-60
2022/04/30 06:14:04;;;;;;;3.97;0.98;;;;;;;32.46;7.21;100545.56;5051799;28;20523;-61
2022/04/30 06:16:30;;;;;;;1.00;0.90;;;;;;;31.81;7.47;100542.22;5051084;28;20101;-62
2022/04/30 06:18:55;;;;;;;1.52;0.85;;;;;;;29.37;8.42;100552.94;5052060;28;20033;-62
2022/04/30 06:21:23;;;;;;;2.50;0.90;;;;;;;25.94;10.62;100541.69;5052092;28;20103;-63
2022/04/30 06:23:48;;;;;;;1.40;1.17;;;;;;;25.55;11.53;100544.09;5034430;28;20390;-62
2022/04/30 06:26:14;;;;;;;4.28;1.40;;;;;;;26.58;10.88;100524.84;5051915;28;20074;-62
2022/04/30 06:28:39;;;;;;;1.08;0.95;;;;;;;25.03;10.85;100555.44;5052210;28;20465;-62
2022/04/30 06:31:05;;;;;;;1.52;1.00;;;;;;;22.77;12.59;100517.09;5051170;28;20599;-63
2022/04/30 06:33:32;;;;;;;2.15;0.90;;;;;;;20.61;14.31;100527.56;5052169;28;20053;-62
2022/04/30 06:35:57;;;;;;;1.27;0.90;;;;;;;18.57;15.84;100548.34;5052166;28;20098;-62
2022/04/30 06:38:23;;;;;;;2.42;1.00;;;;;;;16.93;17.81;100523.75;5051810;28;20036;-61
2022/04/30 06:40:49;;;;;;;1.85;1.15;;;;;;;15.92;19.68;100552.09;5051961;28;20106;-62
2022/04/30 06:43:15;;;;;;;2.60;1.02;;;;;;;15.02;21.00;100561.88;5052344;28;20400;-60
2022/04/30 06:45:40;;;;;;;1.80;1.15;;;;;;;15.10;20.64;100556.69;5052030;28;20029;-63
2022/04/30 06:48:06;;;;;;;6.05;1.30;;;;;;;16.91;19.37;100558.22;5051667;28;20373;-60
2022/04/30 06:50:32;;;;;;;3.00;0.80;;;;;;;18.99;17.08;100553.03;5052156;28;20526;-62
2022/04/30 06:58:26;;;;;;;0.98;0.80;;;;;;;23.49;12.66;100524.78;5051379;28;20078;-61
2022/04/30 07:03:24;;;;;;;2.80;1.10;;;;;;;24.14;12.08;100552.22;5050805;28;20377;-60
2022/04/30 07:05:51;;;;;;;2.78;1.20;;;;;;;22.01;13.80;100547.09;5050741;28;20196;-61
2022/04/30 07:08:17;;;;;;;2.65;1.02;;;;;;;19.97;15.38;100544.56;5051403;28;20027;-63
2022/04/30 07:10:42;;;;;;;2.38;0.88;;;;;;;18.13;17.01;100566.28;5051557;28;20032;-61
2022/04/30 07:13:08;;;;;;;1.00;0.90;;;;;;;16.39;18.15;100555.91;5050704;28;20044;-63
2022/04/30 07:15:33;;;;;;;2.15;0.88;;;;;;;15.10;19.70;100555.81;5050787;28;20429;-60
2022/04/30 07:17:58;;;;;;;1.42;0.85;;;;;;;14.14;20.13;100557.59;5050716;28;20056;-60
2022/04/30 07:20:24;;;;;;;2.28;1.00;;;;;;;13.23;21.35;100563.16;5050239;28;20024;-61
2022/04/30 07:22:49;;;;;;;4.78;0.77;;;;;;;12.33;22.18;100546.81;5050483;28;20049;-62
2022/04/30 07:25:15;;;;;;;1.48;1.08;;;;;;;11.84;23.77;100575.50;5050596;28;20473;-61
2022/04/30 07:27:40;;;;;;;2.70;1.02;;;;;;;11.26;23.98;100572.56;5050366;28;20036;-61
2022/04/30 07:30:06;;;;;;;1.10;0.90;;;;;;;10.71;24.07;100572.78;5050754;28;20083;-61
2022/04/30 07:32:32;;;;;;;1.70;1.08;;;;;;;11.60;23.37;100568.31;5050692;28;20021;-62
2022/04/30 07:34:57;;;;;;;1.90;1.20;;;;;;;14.68;21.19;100560.25;5050597;28;20099;-61
2022/04/30 07:37:23;;;;;;;7.35;1.45;;;;;;;19.61;16.17;100557.38;5050701;28;20116;-61
2022/04/30 07:39:48;;;;;;;3.28;1.35;;;;;;;23.87;12.88;100554.66;5050618;28;20025;-65
2022/04/30 07:42:14;;;;;;;2.85;1.35;;;;;;;25.91;9.84;100556.66;5050867;28;20028;-62
2022/04/30 07:44:39;;;;;;;2.92;1.33;;;;;;;24.76;10.02;100538.84;5050480;28;20437;-62
2022/04/30 07:47:05;;;;;;;2.92;1.05;;;;;;;23.05;11.31;100532.81;5050414;28;20059;-61
2022/04/30 07:49:31;;;;;;;2.70;0.98;;;;;;;21.40;12.83;100547.75;5050499;28;20029;-62
2022/04/30 07:51:56;;;;;;;3.47;1.40;;;;;;;19.25;14.66;100545.88;5050245;28;20031;-62
2022/04/30 07:54:26;;;;;;;2.17;1.10;;;;;;;17.23;16.38;100545.31;5050225;28;20033;-61
2022/04/30 07:56:53;;;;;;;1.35;0.90;;;;;;;15.72;18.09;100540.38;5050305;28;20043;-61
2022/04/30 07:59:19;;;;;;;1.85;1.05;;;;;;;14.46;19.31;100515.44;5050653;28;20465;-62
2022/04/30 08:01:44;;;;;;;3.97;1.10;;;;;;;14.04;19.93;100560.22;5050390;28;20037;-65
2022/04/30 08:04:10;;;;;;;2.35;1.30;;;;;;;13.23;20.92;100559.63;5050427;28;20029;-61
2022/04/30 08:06:35;;;;;;;2.95;1.02;;;;;;;12.62;21.73;100565.19;5050585;28;20031;-62
2022/04/30 08:09:01;;;;;;;7.78;1.25;;;;;;;12.88;22.19;100551.56;5050454;28;20480;-61
2022/04/30 08:11:26;;;;;;;4.63;1.10;;;;;;;14.21;20.22;100561.47;5050501;28;20067;-61
2022/04/30 08:13:52;;;;;;;8.52;3.40;;;;;;;15.03;19.55;100548.28;5050485;28;20039;-61
2022/04/30 08:16:17;;;;;;;1.42;1.10;;;;;;;15.53;19.32;100525.00;5032696;28;20054;-62
2022/04/30 08:18:43;;;;;;;1.60;0.93;;;;;;;15.85;17.75;100550.91;5050778;28;20542;-62
2022/04/30 08:21:09;;;;;;;1.38;0.80;;;;;;;15.42;17.88;100552.09;5050250;28;20033;-62
2022/04/30 08:23:36;;;;;;;1.27;0.90;;;;;;;14.78;18.22;100555.81;5048706;28;20520;-62
2022/04/30 08:26:03;;;;;;;3.72;1.15;;;;;;;14.49;18.60;100564.53;5032583;28;20057;-62
2022/04/30 08:28:28;;;;;;;2.17;1.15;;;;;;;14.57;18.92;100554.94;5050717;28;20051;-63
2022/04/30 08:30:54;;;;;;;2.13;1.48;;;;;;;14.72;19.17;100550.97;5032320;28;20025;-62
2022/04/30 08:33:20;;;;;;;2.22;1.35;;;;;;;14.86;19.29;100548.88;5034760;28;20039;-61
2022/04/30 08:35:46;;;;;;;1.95;1.00;;;;;;;15.00;19.26;100555.78;5036777;28;20139;-63
2022/04/30 08:38:12;;;;;;;1.40;0.90;;;;;;;15.12;19.11;100553.84;5036401;28;20548;-63
2022/04/30 08:40:42;;;;;;;2.88;0.88;;;;;;;15.33;19.04;100562.72;5053875;28;20037;-63
2022/04/30 08:43:09;;;;;;;2.05;0.80;;;;;;;15.41;18.38;100555.78;5053661;28;20085;-62
2022/04/30 08:45:38;;;;;;;2.72;1.25;;;;;;;15.46;19.04;100545.44;5054280;28;20433;-62
2022/04/30 08:48:12;;;;;;;1.63;0.90;;;;;;;15.44;19.13;100553.66;5054260;28;20036;-62
2022/04/30 08:50:40;;;;;;;2.20;0.80;;;;;;;15.38;18.29;100546.13;5053522;28;20115;-62
2022/04/30 08:53:05;;;;;;;3.15;1.00;;;;;;;15.38;19.10;100547.97;5053297;28;20436;-61
2022/04/30 08:55:31;;;;;;;0.98;0.70;;;;;;;15.51;18.60;100543.19;5053890;28;20116;-61
2022/04/30 08:57:57;;;;;;;1.42;0.90;;;;;;;15.60;18.18;100539.63;5053652;28;20033;-62
2022/04/30 09:00:22;;;;;;;1.52;1.13;;;;;;;15.64;18.39;100534.81;5053433;28;20433;-62
2022/04/30 09:02:52;;;;;;;1.67;1.02;;;;;;;15.46;18.50;100535.50;5053574;28;20033;-64
2022/04/30 09:05:18;;;;;;;2.45;1.45;;;;;;;14.81;18.91;100532.28;5035854;28;20127;-60
2022/04/30 09:07:53;;;;;;;3.72;1.20;;;;;;;14.19;19.56;100541.06;5035132;28;20132;-63
2022/04/30 09:10:25;;;;;;;2.50;1.20;;;;;;;13.27;20.46;100508.19;5017831;28;20040;-61
2022/04/30 09:13:14;;;;;;;2.35;1.33;;;;;;;12.78;21.02;100540.69;5033556;28;20036;-63
2022/04/30 09:15:41;;;;;;;2.03;1.10;;;;;;;12.26;21.61;100542.91;5052331;28;20057;-65
2022/04/30 09:18:08;;;;;;;1.52;1.10;;;;;;;12.05;22.26;100534.63;5051662;28;20036;-61
2022/04/30 09:20:51;;;;;;;2.25;1.08;;;;;;;12.25;22.57;100538.50;5052688;28;20083;-62
2022/04/30 09:23:27;;;;;;;4.90;1.00;;;;;;;12.22;22.57;100521.75;5052827;28;20060;-61
2022/04/30 09:25:55;;;;;;;2.80;1.13;;;;;;;12.23;22.03;100528.84;5053353;28;20118;-61
2022/04/30 09:28:25;;;;;;;1.85;1.17;;;;;;;12.28;21.60;100526.66;5035159;28;20400;-62
2022/04/30 09:30:51;;;;;;;1.92;1.20;;;;;;;11.98;22.61;100526.19;5052743;28;20025;-61
2022/04/30 09:33:20;;;;;;;2.30;0.98;;;;;;;11.71;22.99;100531.78;5052905;28;20227;-61
2022/04/30 09:38:38;;;;;;;2.65;1.45;;;;;;;11.59;23.15;100521.00;5036635;28;20095;-64
2022/04/30 09:41:07;;;;;;;3.10;1.30;;;;;;;11.62;23.20;100531.50;5036624;28;20144;-63
2022/04/30 09:43:34;;;;;;;6.85;1.17;;;;;;;11.60;22.87;100522.72;5032798;28;20033;-62
2022/04/30 09:46:01;;;;;;;1.40;1.10;;;;;;;11.80;22.74;100525.72;5048452;28;20025;-64
2022/04/30 09:53:57;;;;;;;6.43;1.10;;;;;;;12.18;21.86;100519.31;5038029;28;20340;-65
2022/04/30 09:56:34;;;;;;;2.60;0.90;;;;;;;12.16;22.41;100528.44;5040571;28;20033;-62
2022/04/30 09:59:08;;;;;;;3.45;1.20;;;;;;;12.05;22.75;100532.81;5031999;28;20477;-65
2022/04/30 10:01:35;;;;;;;3.63;1.10;;;;;;;11.79;22.85;100526.69;5032078;28;20037;-64
2022/04/30 10:04:12;;;;;;;1.80;1.13;;;;;;;11.66;23.19;100528.59;5031920;28;20029;-63
2022/04/30 10:06:43;;;;;;;3.70;1.30;;;;;;;11.40;23.95;100504.53;5032444;28;20029;-64
2022/04/30 10:09:11;;;;;;;2.38;1.15;;;;;;;11.67;24.15;100528.44;5031322;28;20033;-63
2022/04/30 10:12:06;;;;;;;1.85;0.95;;;;;;;12.25;23.60;100519.72;5032010;28;20057;-63
2022/04/30 10:14:41;;;;;;;2.13;1.00;;;;;;;12.71;22.95;100519.81;5031283;28;20037;-63
2022/04/30 10:17:13;;;;;;;6.75;0.90;;;;;;;12.83;21.85;100509.91;5030963;28;20508;-63
2022/04/30 10:19:55;;;;;;;3.72;1.13;;;;;;;13.11;21.09;100515.78;5031905;28;20075;-62
2022/04/30 10:22:21;;;;;;;4.25;1.30;;;;;;;13.02;21.93;100520.91;5031802;28;20390;-63
2022/04/30 10:24:48;;;;;;;3.88;1.20;;;;;;;13.12;22.22;100522.84;5031327;28;20110;-63
2022/04/30 10:27:15;;;;;;;4.00;1.30;;;;;;;13.20;21.77;100520.41;5031493;28;20187;-63
2022/04/30 10:29:59;;;;;;;3.65;1.20;;;;;;;13.45;21.91;100521.13;5032114;28;20037;-62
2022/04/30 10:32:33;;;;;;;1.63;1.13;;;;;;;13.39;21.81;100527.84;5032207;28;20033;-62
2022/04/30 10:35:00;;;;;;;3.50;1.38;;;;;;;13.25;21.89;100520.03;5013924;28;20091;-63
2022/04/30 10:37:31;;;;;;;4.05;1.13;;;;;;;13.22;21.58;100505.00;5030453;28;20538;-64
2022/04/30 10:40:05;;;;;;;2.38;1.20;;;;;;;13.32;21.46;100516.72;5032127;28;20029;-62
2022/04/30 10:42:41;;;;;;;3.63;1.00;;;;;;;13.20;21.74;100523.09;5031650;28;20026;-62
2022/04/30 10:45:11;;;;;;;3.55;1.02;;;;;;;12.96;22.26;100515.16;5031315;28;20034;-62
2022/04/30 10:47:47;;;;;;;1.60;1.10;;;;;;;12.62;21.91;100518.69;5031253;28;20481;-62
2022/04/30 10:50:13;;;;;;;3.03;1.50;;;;;;;12.30;23.10;100504.09;5031491;28;20076;-62
2022/04/30 10:52:40;;;;;;;2.15;1.15;;;;;;;12.12;23.08;100526.97;5031583;28;20061;-63
2022/04/30 10:55:06;;;;;;;2.75;1.20;;;;;;;11.72;23.28;100503.97;5030733;28;20025;-63
2022/04/30 10:57:43;;;;;;;1.83;1.42;;;;;;;11.85;23.70;100526.25;5031271;28;20033;-63
2022/04/30 11:00:09;;;;;;;3.03;1.13;;;;;;;11.38;23.29;100485.03;5031371;28;20524;-62
2022/04/30 11:02:35;;;;;;;3.30;1.20;;;;;;;11.34;23.93;100512.06;5013748;28;20017;-62
2022/04/30 11:05:01;;;;;;;3.80;1.00;;;;;;;11.05;24.25;100504.28;5031028;28;20120;-62
2022/04/30 11:07:30;;;;;;;3.50;1.85;;;;;;;10.91;24.61;100497.25;5031173;28;20048;-61
2022/04/30 11:09:56;;;;;;;5.00;1.40;;;;;;;11.02;24.79;100514.41;5031744;28;20164;-63
2022/04/30 11:12:31;;;;;;;7.05;1.50;;;;;;;11.28;24.39;100512.50;5013507;28;20083;-63
2022/04/30 11:14:57;;;;;;;6.15;1.58;;;;;;;11.48;24.13;100512.88;5031226;28;20034;-64
2022/04/30 11:17:24;;;;;;;4.47;1.50;;;;;;;11.74;23.15;100515.44;5013103;28;20104;-62
2022/04/30 11:19:51;;;;;;;1.40;1.13;;;;;;;12.06;23.10;100509.53;5013618;28;20102;-63
2022/04/30 11:22:17;;;;;;;4.35;1.50;;;;;;;12.18;21.93;100476.38;5030565;28;20481;-62
2022/04/30 11:24:43;;;;;;;5.13;2.15;;;;;;;12.46;22.65;100498.38;5030560;28;20050;-63
2022/04/30 11:27:10;;;;;;;6.35;1.98;;;;;;;12.36;22.40;100497.41;5030846;28;20037;-62
2022/04/30 11:29:46;;;;;;;4.40;1.35;;;;;;;12.13;22.72;100508.09;5030699;28;20485;-62
2022/04/30 11:32:19;;;;;;;2.22;1.40;;;;;;;11.76;22.67;100509.00;5013180;28;20064;-63
2022/04/30 11:34:45;;;;;;;3.80;1.05;;;;;;;11.15;23.04;100484.91;5030777;28;20113;-63
2022/04/30 11:37:10;;;;;;;1.58;0.90;;;;;;;10.79;23.68;100470.47;5030652;28;20037;-63
2022/04/30 11:39:36;;;;;;;6.40;2.63;;;;;;;10.86;23.46;100485.19;5030701;28;20022;-63
2022/04/30 11:42:01;;;;;;;3.53;1.65;;;;;;;10.85;23.46;100491.47;5030443;28;20072;-63
2022/04/30 11:44:30;;;;;;;2.25;1.52;;;;;;;10.89;24.04;100485.78;5031020;28;20025;-63
2022/04/30 11:46:56;;;;;;;3.60;1.75;;;;;;;11.04;23.09;100493.72;5030762;28;20112;-61
2022/04/30 11:49:24;;;;;;;3.90;1.90;;;;;;;11.19;23.53;100494.41;5030448;28;20045;-62
2022/04/30 11:51:51;;;;;;;3.90;1.45;;;;;;;11.24;22.78;100488.72;5030454;28;20465;-64
2022/04/30 11:54:20;;;;;;;1.60;1.10;;;;;;;11.28;22.58;100461.56;5030728;28;20040;-63
2022/04/30 11:56:46;;;;;;;8.63;4.15;;;;;;;11.87;22.47;100477.81;5029958;28;20470;-64
2022/04/30 11:59:12;;;;;;;4.15;2.22;;;;;;;12.31;22.29;100475.44;5030233;28;20399;-63
2022/04/30 12:01:39;;;;;;;3.47;1.27;;;;;;;12.43;21.29;100450.28;5030478;28;20048;-62
2022/04/30 12:04:08;;;;;;;1.33;0.93;;;;;;;12.48;20.72;100464.22;5012619;28;20140;-63
2022/04/30 12:06:35;;;;;;;5.28;1.60;;;;;;;12.33;21.19;100476.16;5029725;28;20033;-64